Preview of NWS' New Version of Forecast
This preview is not operational and should not be used for support decisions.

Terminal Aerodrome Forecast (TAF)

Issued by National Weather Service (NWS)

                            
000
FTUS43 KDMX 191120
TAFALO
TAF
KALO 191120Z 1912/2012 VRB03KT P6SM SCT070
     FM191600 14005KT P6SM FEW040
     FM200900 18009KT P6SM VCTS BKN040CB=